sensor_id;sensor_type;location;lat;lon;timestamp;P1;durP1;ratioP1;P2;durP2;ratioP2
2658;SDS011;1339;53.304;10.406;2023-08-24T17:26:40;3.50;;;3.30;;
2658;SDS011;1339;53.304;10.406;2023-08-24T17:29:07;4.43;;;3.37;;
2658;SDS011;1339;53.304;10.406;2023-08-24T17:31:34;3.23;;;2.73;;
2658;SDS011;1339;53.304;10.406;2023-08-24T17:34:01;6.30;;;3.40;;
2658;SDS011;1339;53.304;10.406;2023-08-24T17:36:30;3.83;;;2.63;;
2658;SDS011;1339;53.304;10.406;2023-08-24T17:38:57;5.03;;;2.90;;
2658;SDS011;1339;53.304;10.406;2023-08-24T17:41:24;3.17;;;2.97;;
2658;SDS011;1339;53.304;10.406;2023-08-24T17:43:53;3.30;;;3.10;;
2658;SDS011;1339;53.304;10.406;2023-08-24T17:46:20;2.90;;;2.70;;
2658;SDS011;1339;53.304;10.406;2023-08-24T17:48:47;4.43;;;2.97;;
2658;SDS011;1339;53.304;10.406;2023-08-24T17:51:14;3.00;;;2.80;;
2658;SDS011;1339;53.304;10.406;2023-08-24T17:53:41;4.90;;;2.77;;
2658;SDS011;1339;53.304;10.406;2023-08-24T17:56:09;3.17;;;2.87;;
2658;SDS011;1339;53.304;10.406;2023-08-24T17:58:36;3.50;;;3.20;;
2658;SDS011;1339;53.304;10.406;2023-08-24T18:01:04;2.97;;;2.70;;
2658;SDS011;1339;53.304;10.406;2023-08-24T18:03:31;3.10;;;2.80;;
2658;SDS011;1339;53.304;10.406;2023-08-24T18:05:58;3.10;;;2.90;;
2658;SDS011;1339;53.304;10.406;2023-08-24T18:08:25;3.47;;;3.27;;
2658;SDS011;1339;53.304;10.406;2023-08-24T18:10:52;3.70;;;3.27;;
2658;SDS011;1339;53.304;10.406;2023-08-24T18:13:27;4.40;;;3.47;;
2658;SDS011;1339;53.304;10.406;2023-08-24T18:15:54;3.07;;;2.87;;
2658;SDS011;1339;53.304;10.406;2023-08-24T18:18:23;4.00;;;2.80;;
2658;SDS011;1339;53.304;10.406;2023-08-24T18:20:50;5.20;;;2.83;;
2658;SDS011;1339;53.304;10.406;2023-08-24T18:23:17;3.37;;;3.07;;
2658;SDS011;1339;53.304;10.406;2023-08-24T18:25:44;3.50;;;3.20;;
2658;SDS011;1339;53.304;10.406;2023-08-24T18:28:11;2.90;;;2.70;;
2658;SDS011;1339;53.304;10.406;2023-08-24T18:30:38;6.10;;;3.17;;
2658;SDS011;1339;53.304;10.406;2023-08-24T18:33:05;3.93;;;3.33;;
2658;SDS011;1339;53.304;10.406;2023-08-24T18:35:33;5.00;;;3.00;;
2658;SDS011;1339;53.304;10.406;2023-08-24T18:38:01;3.00;;;2.73;;
2658;SDS011;1339;53.304;10.406;2023-08-24T18:40:29;3.37;;;3.00;;
2658;SDS011;1339;53.304;10.406;2023-08-24T18:42:56;3.30;;;3.10;;
2658;SDS011;1339;53.304;10.406;2023-08-24T18:45:23;3.73;;;3.43;;
2658;SDS011;1339;53.304;10.406;2023-08-24T18:47:51;4.33;;;3.50;;
2658;SDS011;1339;53.304;10.406;2023-08-24T18:50:18;4.50;;;3.30;;
2658;SDS011;1339;53.304;10.406;2023-08-24T18:52:47;3.60;;;3.30;;
2658;SDS011;1339;53.304;10.406;2023-08-24T18:55:14;3.70;;;3.40;;
2658;SDS011;1339;53.304;10.406;2023-08-24T18:57:41;3.57;;;3.37;;
2658;SDS011;1339;53.304;10.406;2023-08-24T19:00:09;4.20;;;3.80;;
2658;SDS011;1339;53.304;10.406;2023-08-24T19:02:36;4.37;;;4.07;;
2658;SDS011;1339;53.304;10.406;2023-08-24T19:05:03;7.33;;;4.10;;
2658;SDS011;1339;53.304;10.406;2023-08-24T19:07:30;5.00;;;4.53;;
2658;SDS011;1339;53.304;10.406;2023-08-24T19:09:59;5.03;;;4.53;;
2658;SDS011;1339;53.304;10.406;2023-08-24T19:12:26;5.57;;;4.10;;
2658;SDS011;1339;53.304;10.406;2023-08-24T19:14:53;4.70;;;4.30;;
2658;SDS011;1339;53.304;10.406;2023-08-24T19:17:20;5.07;;;4.70;;
2658;SDS011;1339;53.304;10.406;2023-08-24T19:19:47;6.97;;;4.50;;
2658;SDS011;1339;53.304;10.406;2023-08-24T19:22:14;5.60;;;5.20;;
2658;SDS011;1339;53.304;10.406;2023-08-24T19:24:41;5.20;;;4.70;;
2658;SDS011;1339;53.304;10.406;2023-08-24T19:27:10;6.40;;;5.57;;
2658;SDS011;1339;53.304;10.406;2023-08-24T19:29:36;4.80;;;4.50;;
2658;SDS011;1339;53.304;10.406;2023-08-24T19:32:03;5.40;;;5.00;;
2658;SDS011;1339;53.304;10.406;2023-08-24T19:34:30;5.63;;;5.00;;
2658;SDS011;1339;53.304;10.406;2023-08-24T19:36:57;5.50;;;4.97;;
2658;SDS011;1339;53.304;10.406;2023-08-24T19:39:24;7.33;;;6.67;;
2658;SDS011;1339;53.304;10.406;2023-08-24T19:41:51;4.83;;;4.43;;
2658;SDS011;1339;53.304;10.406;2023-08-24T19:44:20;6.80;;;5.07;;
2658;SDS011;1339;53.304;10.406;2023-08-24T19:46:47;5.00;;;4.70;;
2658;SDS011;1339;53.304;10.406;2023-08-24T19:49:13;5.40;;;4.80;;
2658;SDS011;1339;53.304;10.406;2023-08-24T19:51:40;5.77;;;4.93;;
2658;SDS011;1339;53.304;10.406;2023-08-24T19:54:07;6.63;;;6.13;;
2658;SDS011;1339;53.304;10.406;2023-08-24T19:56:35;7.40;;;6.77;;
2658;SDS011;1339;53.304;10.406;2023-08-24T19:59:02;7.60;;;6.87;;
2658;SDS011;1339;53.304;10.406;2023-08-24T20:01:30;7.83;;;7.17;;
2658;SDS011;1339;53.304;10.406;2023-08-24T20:03:57;7.80;;;7.10;;
2658;SDS011;1339;53.304;10.406;2023-08-24T20:06:25;7.23;;;6.57;;
2658;SDS011;1339;53.304;10.406;2023-08-24T20:08:53;7.40;;;6.90;;
2658;SDS011;1339;53.304;10.406;2023-08-24T20:11:20;7.43;;;6.83;;
2658;SDS011;1339;53.304;10.406;2023-08-24T20:13:47;8.70;;;7.80;;
2658;SDS011;1339;53.304;10.406;2023-08-24T20:16:15;8.43;;;7.83;;
2658;SDS011;1339;53.304;10.406;2023-08-24T20:18:44;10.80;;;9.10;;
2658;SDS011;1339;53.304;10.406;2023-08-24T20:21:11;8.30;;;7.63;;
2658;SDS011;1339;53.304;10.406;2023-08-24T20:23:38;8.47;;;7.87;;
2658;SDS011;1339;53.304;10.406;2023-08-24T20:26:06;8.43;;;7.83;;
2658;SDS011;1339;53.304;10.406;2023-08-24T20:28:35;9.77;;;8.83;;
2658;SDS011;1339;53.304;10.406;2023-08-24T20:31:03;8.17;;;7.60;;
2658;SDS011;1339;53.304;10.406;2023-08-24T20:33:30;8.57;;;7.33;;
2658;SDS011;1339;53.304;10.406;2023-08-24T20:35:58;8.63;;;7.93;;
2658;SDS011;1339;53.304;10.406;2023-08-24T20:38:25;8.47;;;7.67;;
2658;SDS011;1339;53.304;10.406;2023-08-24T20:40:52;10.97;;;9.87;;
2658;SDS011;1339;53.304;10.406;2023-08-24T20:43:20;7.80;;;7.20;;
2658;SDS011;1339;53.304;10.406;2023-08-24T20:45:47;8.17;;;7.50;;
2658;SDS011;1339;53.304;10.406;2023-08-24T20:48:14;11.97;;;8.00;;
2658;SDS011;1339;53.304;10.406;2023-08-24T20:50:42;11.00;;;10.03;;
2658;SDS011;1339;53.304;10.406;2023-08-24T20:53:10;10.33;;;9.53;;
2658;SDS011;1339;53.304;10.406;2023-08-24T20:55:37;10.30;;;9.43;;
2658;SDS011;1339;53.304;10.406;2023-08-24T20:58:04;9.50;;;8.70;;
2658;SDS011;1339;53.304;10.406;2023-08-24T21:00:32;11.30;;;10.30;;
2658;SDS011;1339;53.304;10.406;2023-08-24T21:02:59;11.03;;;9.70;;
2658;SDS011;1339;53.304;10.406;2023-08-24T21:05:26;10.63;;;9.67;;
2658;SDS011;1339;53.304;10.406;2023-08-24T21:07:53;13.10;;;12.00;;
2658;SDS011;1339;53.304;10.406;2023-08-24T21:10:21;11.80;;;10.80;;
2658;SDS011;1339;53.304;10.406;2023-08-24T21:12:48;9.87;;;9.07;;
2658;SDS011;1339;53.304;10.406;2023-08-24T21:15:15;11.50;;;10.37;;
2658;SDS011;1339;53.304;10.406;2023-08-24T21:17:42;12.03;;;10.97;;
2658;SDS011;1339;53.304;10.406;2023-08-24T21:20:10;11.73;;;10.83;;
2658;SDS011;1339;53.304;10.406;2023-08-24T21:22:37;10.97;;;10.17;;
2658;SDS011;1339;53.304;10.406;2023-08-24T21:25:04;12.80;;;11.70;;
2658;SDS011;1339;53.304;10.406;2023-08-24T21:27:32;11.43;;;10.63;;
2658;SDS011;1339;53.304;10.406;2023-08-24T21:29:59;12.00;;;11.00;;
2658;SDS011;1339;53.304;10.406;2023-08-24T21:32:26;12.60;;;11.60;;
2658;SDS011;1339;53.304;10.406;2023-08-24T21:34:54;10.90;;;10.20;;
2658;SDS011;1339;53.304;10.406;2023-08-24T21:37:21;12.97;;;11.87;;
2658;SDS011;1339;53.304;10.406;2023-08-24T21:39:48;12.07;;;11.17;;
2658;SDS011;1339;53.304;10.406;2023-08-24T21:42:15;12.53;;;11.30;;
2658;SDS011;1339;53.304;10.406;2023-08-24T21:44:43;11.73;;;10.80;;
2658;SDS011;1339;53.304;10.406;2023-08-24T21:47:10;12.80;;;11.70;;
2658;SDS011;1339;53.304;10.406;2023-08-24T21:49:37;11.00;;;10.20;;
2658;SDS011;1339;53.304;10.406;2023-08-24T21:52:04;11.50;;;10.70;;
2658;SDS011;1339;53.304;10.406;2023-08-24T21:54:31;12.90;;;11.90;;
2658;SDS011;1339;53.304;10.406;2023-08-24T21:56:58;14.30;;;13.27;;
2658;SDS011;1339;53.304;10.406;2023-08-24T21:59:25;14.40;;;13.23;;
2658;SDS011;1339;53.304;10.406;2023-08-24T22:01:53;13.97;;;13.07;;
2658;SDS011;1339;53.304;10.406;2023-08-24T22:04:20;11.40;;;10.60;;
2658;SDS011;1339;53.304;10.406;2023-08-24T22:06:47;14.60;;;13.40;;
2658;SDS011;1339;53.304;10.406;2023-08-24T22:09:14;13.70;;;12.60;;
2658;SDS011;1339;53.304;10.406;2023-08-24T22:11:41;12.53;;;11.40;;
2658;SDS011;1339;53.304;10.406;2023-08-24T22:14:08;12.20;;;11.23;;
2658;SDS011;1339;53.304;10.406;2023-08-24T22:16:35;14.67;;;13.37;;
2658;SDS011;1339;53.304;10.406;2023-08-24T22:19:04;13.23;;;12.33;;
2658;SDS011;1339;53.304;10.406;2023-08-24T22:21:31;12.27;;;11.47;;
2658;SDS011;1339;53.304;10.406;2023-08-24T22:23:57;12.77;;;11.77;;
2658;SDS011;1339;53.304;10.406;2023-08-24T22:26:24;12.40;;;11.50;;
2658;SDS011;1339;53.304;10.406;2023-08-24T22:28:51;11.30;;;10.40;;
2658;SDS011;1339;53.304;10.406;2023-08-24T22:31:18;12.40;;;11.20;;
2658;SDS011;1339;53.304;10.406;2023-08-24T22:33:45;12.07;;;11.20;;
2658;SDS011;1339;53.304;10.406;2023-08-24T22:36:13;12.27;;;11.10;;
2658;SDS011;1339;53.304;10.406;2023-08-24T22:38:40;12.00;;;11.00;;
2658;SDS011;1339;53.304;10.406;2023-08-24T22:41:07;12.60;;;11.60;;
2658;SDS011;1339;53.304;10.406;2023-08-24T22:43:35;11.87;;;10.87;;
2658;SDS011;1339;53.304;10.406;2023-08-24T22:46:02;11.97;;;11.07;;
2658;SDS011;1339;53.304;10.406;2023-08-24T22:48:29;11.90;;;10.87;;
2658;SDS011;1339;53.304;10.406;2023-08-24T22:50:56;11.10;;;10.30;;
2658;SDS011;1339;53.304;10.406;2023-08-24T22:53:24;12.07;;;11.10;;
2658;SDS011;1339;53.304;10.406;2023-08-24T22:55:51;12.50;;;11.50;;
